createdAt,value
2019-02-15T17:33:09.235Z,5.90
2019-02-15T17:38:17.071Z,7.77
2019-02-15T17:40:53.274Z,5.63
2019-02-15T17:43:29.591Z,8.10
2019-02-15T17:46:01.298Z,7.37
2019-02-15T17:48:32.365Z,7.47
2019-02-15T17:51:04.062Z,10.77
2019-02-15T17:53:35.818Z,8.93
2019-02-15T17:56:14.171Z,9.63
2019-02-15T17:58:46.242Z,9.63
2019-02-15T18:01:16.486Z,35.07
2019-02-15T18:03:53.298Z,9.83
2019-02-15T18:06:25.875Z,9.20
2019-02-15T18:09:00.733Z,10.00
2019-02-15T18:11:32.040Z,9.50
2019-02-15T18:16:52.923Z,10.97
2019-02-15T18:19:30.597Z,11.47
2019-02-15T18:22:04.095Z,12.57
2019-02-15T18:24:35.399Z,13.07
2019-02-15T18:27:05.835Z,15.43
2019-02-15T18:29:39.875Z,13.83
2019-02-15T18:32:12.936Z,13.17
2019-02-15T18:34:48.240Z,12.00
2019-02-15T18:37:22.142Z,12.43
2019-02-15T18:40:03.614Z,13.03
2019-02-15T18:42:39.356Z,13.27
2019-02-15T18:45:16.408Z,12.40
2019-02-15T18:47:48.219Z,13.33
2019-02-15T18:50:27.581Z,13.73
2019-02-15T18:52:57.834Z,12.87
2019-02-15T18:55:28.715Z,12.33
2019-02-15T18:58:00.085Z,13.30
2019-02-15T19:00:32.150Z,12.17
2019-02-15T19:03:06.210Z,13.40
2019-02-15T19:05:40.176Z,13.53
2019-02-15T19:08:12.485Z,15.00
2019-02-15T19:10:48.042Z,14.90
2019-02-15T19:13:19.595Z,14.13
2019-02-15T19:15:56.565Z,14.20
2019-02-15T19:18:31.965Z,16.90
2019-02-15T19:21:06.797Z,14.13
2019-02-15T19:23:40.842Z,15.90
2019-02-15T19:26:17.782Z,16.80
2019-02-15T19:28:47.117Z,16.27
2019-02-15T19:31:19.428Z,17.50
2019-02-15T19:33:57.993Z,17.77
2019-02-15T19:36:34.619Z,16.53
2019-02-15T19:39:05.458Z,13.77
2019-02-15T19:41:40.926Z,15.83
2019-02-15T19:44:18.042Z,14.50
2019-02-15T19:46:55.883Z,14.57
2019-02-15T19:49:38.578Z,13.20
2019-02-15T19:52:02.796Z,15.43
2019-02-15T19:54:39.867Z,15.40
2019-02-15T19:57:12.558Z,14.63
2019-02-15T19:59:53.752Z,15.07
2019-02-15T20:02:23.572Z,14.70
2019-02-15T20:04:59.067Z,13.97
2019-02-15T20:07:34.464Z,16.30
2019-02-15T20:10:04.100Z,16.27
2019-02-15T20:12:36.367Z,14.57
2019-02-15T20:15:09.886Z,15.30
2019-02-15T20:17:42.981Z,15.07
2019-02-15T20:20:15.731Z,15.80
2019-02-15T20:22:55.106Z,15.90
2019-02-15T20:25:26.781Z,16.40
2019-02-15T20:28:13.313Z,19.20
2019-02-15T20:30:35.981Z,18.10
2019-02-15T20:33:11.259Z,16.40
2019-02-15T20:35:40.766Z,17.40
2019-02-15T20:38:11.370Z,18.63
2019-02-15T20:40:45.730Z,16.97
2019-02-15T20:43:20.389Z,17.63
2019-02-15T20:45:57.977Z,19.90
2019-02-15T20:48:29.071Z,19.10
2019-02-15T20:51:09.197Z,17.50
2019-02-15T20:53:45.978Z,16.90
2019-02-15T20:56:15.967Z,16.63
2019-02-15T20:58:46.205Z,18.33
2019-02-15T21:03:59.448Z,17.53
2019-02-15T21:06:29.653Z,18.70
2019-02-15T21:09:13.730Z,18.33
2019-02-15T21:11:44.699Z,17.10
2019-02-15T21:14:16.007Z,17.70
2019-02-15T21:16:46.729Z,17.53
2019-02-15T21:22:01.615Z,15.70
2019-02-15T21:24:34.199Z,16.40
2019-02-15T21:27:07.473Z,16.13
2019-02-15T21:29:46.540Z,17.80
2019-02-15T21:32:23.582Z,18.90
2019-02-15T21:34:55.582Z,19.80
2019-02-15T21:37:27.971Z,19.90
2019-02-15T21:40:07.252Z,19.13
2019-02-15T21:42:41.325Z,19.63
2019-02-15T21:45:14.147Z,20.57
2019-02-15T21:47:52.511Z,19.30
2019-02-15T21:50:30.915Z,19.10
2019-02-15T21:53:02.426Z,19.93
2019-02-15T21:55:32.982Z,19.80
2019-02-15T21:58:03.551Z,19.73
2019-02-15T22:00:40.449Z,20.47
2019-02-15T22:03:11.589Z,20.13
2019-02-15T22:05:45.078Z,22.43
2019-02-15T22:08:18.131Z,21.57
2019-02-15T22:10:58.420Z,20.33
2019-02-15T22:13:39.500Z,20.50
2019-02-15T22:16:15.167Z,19.50
2019-02-15T22:18:54.762Z,20.60
2019-02-15T22:21:27.252Z,22.77
2019-02-15T22:23:58.945Z,21.80
2019-02-15T22:26:37.667Z,20.77
2019-02-15T22:29:12.190Z,19.40
2019-02-15T22:31:45.922Z,18.73
2019-02-15T22:34:25.537Z,19.73
2019-02-15T22:39:36.707Z,19.00
2019-02-15T22:42:07.441Z,19.30
2019-02-15T22:44:37.882Z,20.13
2019-02-15T22:47:10.860Z,19.80
2019-02-15T22:49:43.535Z,18.97
2019-02-15T22:52:18.704Z,19.00
2019-02-15T22:54:52.867Z,20.67
2019-02-15T22:57:25.424Z,18.87
2019-02-15T23:00:01.100Z,19.37
2019-02-15T23:02:30.142Z,19.93
2019-02-15T23:05:05.196Z,19.37
2019-02-15T23:07:36.342Z,19.13
2019-02-15T23:10:06.879Z,19.77
2019-02-15T23:12:38.786Z,19.57
2019-02-15T23:15:11.272Z,19.70
2019-02-15T23:17:42.948Z,18.97
2019-02-15T23:20:14.066Z,19.07
2019-02-15T23:22:46.746Z,19.00
2019-02-15T23:25:22.740Z,18.47
2019-02-15T23:27:54.285Z,18.80
2019-02-15T23:30:27.430Z,18.70
2019-02-15T23:32:58.861Z,17.80
2019-02-15T23:35:38.904Z,19.03
2019-02-15T23:38:08.383Z,18.17
2019-02-15T23:40:39.934Z,19.00
2019-02-15T23:43:19.694Z,17.87
2019-02-15T23:45:48.877Z,17.13
2019-02-15T23:48:19.018Z,18.10
2019-02-15T23:50:54.976Z,17.80
2019-02-15T23:53:19.769Z,18.00
2019-02-15T23:55:51.152Z,17.10
2019-02-15T23:58:21.504Z,17.63
